Time;durP1;ratioP1;P1;durP2;ratioP2;P2;SDS_P1;SDS_P2;PMS_P1;PMS_P2;Temp;Humidity;BMP_temperature;BMP_pressure;BME280_temperature;BME280_humidity;BME280_pressure;Samples;Min_cycle;Max_cycle;Signal;HPM_P1;HPM_P2
2021/10/17 00:03:36;;;;;;;4.27;3.87;;;10.50;34.40;;;;;;10375416;28;20230;-75
2021/10/17 00:08:40;;;;;;;3.97;3.57;;;10.40;35.00;;;;;;10370560;28;20238;-74
2021/10/17 00:13:44;;;;;;;3.60;3.30;;;10.40;34.30;;;;;;10372248;28;20227;-76
2021/10/17 00:18:47;;;;;;;3.57;3.27;;;10.40;34.30;;;;;;10375126;28;20238;-76
2021/10/17 00:23:51;;;;;;;3.50;3.20;;;10.30;34.10;;;;;;10377277;28;20228;-76
2021/10/17 00:28:55;;;;;;;4.00;3.70;;;10.20;34.10;;;;;;10372367;28;20222;-76
2021/10/17 00:34:00;;;;;;;4.03;3.63;;;10.20;34.30;;;;;;10371150;28;20232;-76
2021/10/17 00:39:04;;;;;;;4.50;3.70;;;10.10;34.20;;;;;;10368190;28;20606;-76
2021/10/17 00:44:09;;;;;;;3.63;3.33;;;10.10;34.40;;;;;;10370284;28;20703;-76
2021/10/17 00:49:12;;;;;;;3.93;3.53;;;10.00;34.40;;;;;;10370640;28;20252;-76
2021/10/17 00:54:16;;;;;;;4.33;3.93;;;10.00;34.30;;;;;;10368000;28;20222;-76
2021/10/17 00:59:21;;;;;;;5.03;4.03;;;9.90;35.20;;;;;;10369568;28;20236;-76
2021/10/17 01:04:24;;;;;;;3.87;3.57;;;9.90;35.10;;;;;;10369601;28;20230;-76
2021/10/17 01:09:27;;;;;;;3.57;3.33;;;9.70;35.10;;;;;;10369861;28;20229;-76
2021/10/17 01:14:32;;;;;;;3.77;3.40;;;9.60;35.30;;;;;;10363880;28;20222;-76
2021/10/17 01:19:35;;;;;;;3.43;3.00;;;9.50;35.60;;;;;;10375523;28;20229;-76
2021/10/17 01:24:40;;;;;;;4.17;3.80;;;9.50;35.60;;;;;;10368770;28;20245;-74
2021/10/17 01:29:43;;;;;;;4.33;3.10;;;9.50;35.70;;;;;;10365443;28;20238;-76
2021/10/17 01:34:46;;;;;;;3.63;3.33;;;9.50;35.60;;;;;;10365004;28;20226;-75
2021/10/17 01:39:51;;;;;;;4.97;3.80;;;9.40;35.50;;;;;;10378213;28;20245;-76
2021/10/17 01:44:54;;;;;;;4.20;3.80;;;9.40;35.60;;;;;;10367626;28;20222;-76
2021/10/17 01:49:57;;;;;;;4.23;3.80;;;9.40;35.60;;;;;;10371946;28;20254;-76
2021/10/17 01:55:02;;;;;;;3.70;3.37;;;9.40;35.60;;;;;;10367619;28;20253;-77
2021/10/17 02:00:07;;;;;;;3.13;2.70;;;9.30;35.60;;;;;;10362595;28;20222;-76
2021/10/17 02:05:10;;;;;;;3.63;3.33;;;9.30;35.60;;;;;;10373861;28;20573;-76
2021/10/17 02:10:15;;;;;;;3.33;3.03;;;9.30;35.60;;;;;;10366236;28;20229;-75
2021/10/17 02:15:18;;;;;;;3.20;2.90;;;9.30;35.70;;;;;;10370777;28;20226;-76
2021/10/17 02:20:21;;;;;;;3.27;2.97;;;9.30;35.60;;;;;;10367972;28;20243;-76
2021/10/17 02:25:26;;;;;;;5.37;3.40;;;9.20;35.60;;;;;;10364943;28;20236;-76
2021/10/17 02:30:30;;;;;;;3.83;3.47;;;9.20;35.70;;;;;;10363671;28;20237;-76
2021/10/17 02:35:33;;;;;;;2.97;2.77;;;9.20;35.50;;;;;;10370099;28;20698;-76
2021/10/17 02:40:37;;;;;;;3.00;2.73;;;9.20;35.60;;;;;;10369484;28;20266;-76
2021/10/17 02:45:40;;;;;;;3.93;3.50;;;9.10;35.60;;;;;;10361675;28;20761;-75
2021/10/17 02:50:44;;;;;;;3.73;3.40;;;9.10;35.60;;;;;;10369167;28;20222;-76
2021/10/17 02:55:48;;;;;;;3.07;2.87;;;9.10;35.60;;;;;;10361004;28;20238;-76
2021/10/17 03:00:51;;;;;;;3.50;3.20;;;9.00;35.70;;;;;;10368917;28;20226;-75
2021/10/17 03:05:55;;;;;;;4.43;3.07;;;9.00;35.70;;;;;;10365104;28;20242;-76
2021/10/17 03:10:59;;;;;;;3.70;3.40;;;9.00;35.70;;;;;;10365138;28;20225;-75
2021/10/17 03:16:02;;;;;;;4.07;2.90;;;8.90;35.80;;;;;;10364836;28;20237;-76
2021/10/17 03:21:05;;;;;;;3.33;3.10;;;8.90;35.70;;;;;;10373113;28;20637;-76
2021/10/17 03:26:10;;;;;;;2.93;2.73;;;8.90;35.80;;;;;;10364326;28;20226;-76
2021/10/17 03:31:13;;;;;;;3.50;3.20;;;8.90;35.80;;;;;;10369930;28;20244;-75
2021/10/17 03:36:17;;;;;;;3.20;2.87;;;8.80;35.60;;;;;;10357398;28;20707;-76
2021/10/17 03:41:21;;;;;;;3.47;3.17;;;8.80;35.70;;;;;;10367682;28;20241;-77
2021/10/17 03:46:25;;;;;;;3.20;2.90;;;8.80;35.90;;;;;;10367008;28;20385;-77
2021/10/17 03:51:28;;;;;;;4.10;3.60;;;8.80;35.80;;;;;;10367804;28;20260;-77
2021/10/17 03:56:33;;;;;;;4.00;3.60;;;8.70;35.90;;;;;;10372932;28;20230;-77
2021/10/17 04:01:36;;;;;;;3.60;3.30;;;8.70;36.00;;;;;;10374067;28;20227;-78
2021/10/17 04:06:40;;;;;;;3.50;3.20;;;8.70;36.10;;;;;;10376940;28;20238;-77
2021/10/17 04:11:46;;;;;;;6.83;6.13;;;8.70;36.10;;;;;;10374634;28;20232;-77
2021/10/17 04:16:49;;;;;;;13.80;11.73;;;8.60;36.40;;;;;;10368488;28;20705;-77
2021/10/17 04:21:52;;;;;;;10.47;8.03;;;8.60;36.20;;;;;;10367617;28;20749;-77
2021/10/17 04:26:57;;;;;;;7.03;5.70;;;8.60;36.30;;;;;;10374433;28;20710;-77
2021/10/17 04:32:00;;;;;;;6.03;5.43;;;8.50;36.50;;;;;;10368606;28;20600;-77
2021/10/17 04:37:06;;;;;;;6.40;5.50;;;8.50;36.40;;;;;;10372815;28;20229;-77
2021/10/17 04:42:11;;;;;;;8.80;7.60;;;8.50;36.40;;;;;;10372076;28;20326;-76
2021/10/17 04:47:14;;;;;;;6.40;5.80;;;8.50;36.50;;;;;;10371848;28;20227;-77
2021/10/17 04:52:17;;;;;;;5.83;5.33;;;8.50;36.30;;;;;;10372244;28;20226;-77
2021/10/17 04:57:22;;;;;;;3.93;3.60;;;8.50;36.40;;;;;;10374434;28;20217;-77
2021/10/17 05:02:25;;;;;;;3.30;3.00;;;8.50;36.50;;;;;;10373259;28;20604;-77
2021/10/17 05:07:28;;;;;;;3.60;3.30;;;8.50;36.60;;;;;;10367432;28;20237;-77
2021/10/17 05:12:33;;;;;;;4.03;3.73;;;8.50;36.50;;;;;;10372920;28;20219;-77
2021/10/17 05:17:36;;;;;;;3.73;3.43;;;8.50;36.80;;;;;;10368466;28;20234;-77
2021/10/17 05:22:39;;;;;;;2.80;2.60;;;8.40;36.60;;;;;;10367313;28;20244;-77
2021/10/17 05:27:44;;;;;;;2.80;2.60;;;8.50;36.80;;;;;;10372373;28;20609;-78
2021/10/17 05:32:47;;;;;;;3.40;2.80;;;8.50;37.00;;;;;;10366986;28;20242;-77
2021/10/17 05:37:50;;;;;;;3.73;3.43;;;8.50;36.90;;;;;;10375208;28;20237;-77
2021/10/17 05:42:55;;;;;;;4.00;3.40;;;8.50;37.00;;;;;;10368835;28;20814;-76
2021/10/17 05:47:58;;;;;;;4.07;3.30;;;8.50;37.30;;;;;;10368539;28;20234;-78
2021/10/17 05:53:01;;;;;;;3.90;3.60;;;8.50;37.10;;;;;;10374727;28;20232;-78
2021/10/17 05:58:06;;;;;;;4.97;4.57;;;8.40;37.20;;;;;;10371475;28;20710;-79
2021/10/17 06:03:09;;;;;;;5.20;4.70;;;8.50;37.60;;;;;;10371602;28;20222;-79
2021/10/17 06:08:13;;;;;;;4.57;4.17;;;8.50;37.40;;;;;;10365233;28;20258;-79
2021/10/17 06:13:17;;;;;;;4.60;4.20;;;8.50;37.50;;;;;;10374685;28;20246;-78
2021/10/17 06:18:20;;;;;;;6.17;5.60;;;8.50;37.90;;;;;;10374252;28;20423;-79
2021/10/17 06:23:25;;;;;;;6.20;5.10;;;8.60;37.80;;;;;;10372836;28;20662;-78
2021/10/17 06:28:30;;;;;;;6.53;4.67;;;8.60;37.90;;;;;;10366301;28;21307;-79
2021/10/17 06:33:34;;;;;;;6.03;4.90;;;8.70;38.30;;;;;;10376800;28;20653;-78
2021/10/17 06:38:37;;;;;;;6.87;4.90;;;8.70;38.10;;;;;;10373054;28;20230;-78
2021/10/17 06:43:42;;;;;;;7.63;4.80;;;8.70;38.10;;;;;;10371859;28;20226;-78
2021/10/17 06:48:46;;;;;;;7.63;5.83;;;8.80;38.60;;;;;;10377855;28;20237;-79
2021/10/17 06:53:49;;;;;;;10.13;7.33;;;8.80;38.30;;;;;;10383981;28;20241;-78
2021/10/17 06:58:53;;;;;;;15.03;10.60;;;8.80;38.60;;;;;;10385449;28;20257;-79
2021/10/17 07:03:57;;;;;;;10.63;9.50;;;8.90;39.40;;;;;;10382643;28;20257;-79
2021/10/17 07:09:00;;;;;;;21.83;10.43;;;8.90;39.00;;;;;;10376065;28;20451;-78
2021/10/17 07:14:06;;;;;;;18.33;11.63;;;8.90;39.10;;;;;;10378579;28;20285;-78
2021/10/17 07:19:09;;;;;;;26.90;11.13;;;8.90;40.00;;;;;;10378093;28;20234;-80
2021/10/17 07:24:13;;;;;;;11.80;10.43;;;9.00;39.60;;;;;;10377389;28;20292;-78
2021/10/17 07:29:17;;;;;;;40.73;11.97;;;8.90;39.70;;;;;;10375372;28;20226;-79
2021/10/17 07:34:21;;;;;;;29.07;13.40;;;9.00;40.10;;;;;;10381462;28;20297;-78
2021/10/17 07:39:24;;;;;;;11.53;10.33;;;9.00;40.00;;;;;;10376831;28;20241;-78
2021/10/17 07:44:28;;;;;;;13.77;10.37;;;9.00;40.10;;;;;;10375236;28;20252;-79
2021/10/17 07:49:32;;;;;;;11.27;10.17;;;9.00;40.10;;;;;;10373983;28;20234;-78
2021/10/17 07:54:37;;;;;;;22.40;10.30;;;9.10;40.10;;;;;;10371646;28;20284;-76
2021/10/17 07:59:42;;;;;;;44.60;11.20;;;9.20;40.20;;;;;;10375648;28;20673;-79
2021/10/17 08:04:48;;;;;;;48.43;11.10;;;9.20;40.30;;;;;;10385735;28;20225;-79
2021/10/17 08:09:51;;;;;;;38.80;11.47;;;9.30;40.30;;;;;;10373948;28;20345;-78
2021/10/17 08:14:56;;;;;;;19.87;11.47;;;9.30;40.30;;;;;;10376489;28;20318;-80
2021/10/17 08:19:59;;;;;;;42.83;12.03;;;9.40;40.40;;;;;;10380459;28;20313;-79
2021/10/17 08:25:03;;;;;;;60.10;13.43;;;9.40;40.40;;;;;;10382031;28;20651;-80
2021/10/17 08:30:10;;;;;;;25.33;13.27;;;9.50;40.50;;;;;;10380503;28;20284;-80
2021/10/17 08:35:13;;;;;;;26.80;14.20;;;9.50;41.20;;;;;;10384895;28;20955;-80
2021/10/17 08:40:17;;;;;;;14.13;12.73;;;9.60;40.50;;;;;;10376223;28;20222;-80
2021/10/17 08:45:21;;;;;;;19.63;12.63;;;9.70;40.60;;;;;;10380472;28;20281;-80
2021/10/17 08:50:25;;;;;;;14.20;12.70;;;9.70;41.30;;;;;;10380179;28;20305;-78
2021/10/17 08:55:28;;;;;;;34.43;14.03;;;9.80;40.70;;;;;;10373874;28;20234;-80
2021/10/17 09:00:34;;;;;;;14.60;13.10;;;9.80;40.70;;;;;;10380944;28;20657;-78
2021/10/17 10:26:54;;;;;;;16.47;14.87;;;11.20;42.40;;;;;;10064007;29;20234;-75
2021/10/17 11:24:33;;;;;;;13.90;12.57;;;12.50;43.60;;;;;;10089429;29;20329;-74
2021/10/17 11:29:39;;;;;;;14.37;13.17;;;12.80;43.40;;;;;;10188597;28;20228;-74
2021/10/17 11:34:42;;;;;;;14.40;13.07;;;13.00;42.60;;;;;;10386448;28;20365;-74
2021/10/17 11:39:57;;;;;;;15.70;14.30;;;13.20;42.70;;;;;;10382906;28;20738;-75
2021/10/17 11:45:02;;;;;;;13.57;12.37;;;13.30;42.80;;;;;;10387751;28;20233;-74
2021/10/17 11:50:07;;;;;;;13.70;12.50;;;13.50;42.40;;;;;;10383214;28;20221;-75
2021/10/17 11:55:14;;;;;;;13.90;12.63;;;13.50;42.00;;;;;;10384708;28;20236;-75
2021/10/17 12:00:42;;;;;;;13.70;12.53;;;13.70;42.90;;;;;;10379914;28;20294;-75
2021/10/17 12:05:50;;;;;;;12.40;11.30;;;13.80;43.30;;;;;;10374079;28;20234;-75
2021/10/17 12:11:00;;;;;;;14.00;12.80;;;13.80;42.50;;;;;;10374119;28;20230;-75
2021/10/17 12:16:07;;;;;;;13.23;12.13;;;14.20;43.00;;;;;;10374185;28;20233;-75
2021/10/17 12:21:11;;;;;;;12.03;11.03;;;14.30;41.90;;;;;;10383022;28;20261;-74
2021/10/17 12:26:20;;;;;;;13.63;12.33;;;14.50;42.10;;;;;;10361794;28;20226;-74
2021/10/17 12:31:31;;;;;;;11.57;10.57;;;14.50;42.00;;;;;;10383928;28;20233;-74
2021/10/17 12:36:35;;;;;;;11.97;10.97;;;14.70;42.20;;;;;;10373004;28;20312;-74
2021/10/17 12:42:02;;;;;;;12.60;11.53;;;14.70;41.60;;;;;;10384083;28;20611;-74
2021/10/17 12:47:08;;;;;;;13.27;12.07;;;14.90;42.00;;;;;;10383741;28;20241;-74
2021/10/17 12:52:30;;;;;;;12.67;11.67;;;15.10;41.40;;;;;;10383828;28;20259;-74
2021/10/17 12:57:39;;;;;;;12.43;11.37;;;15.00;41.30;;;;;;10382310;28;20260;-74
2021/10/17 13:02:45;;;;;;;12.10;11.10;;;15.30;41.40;;;;;;10380434;28;20261;-73
2021/10/17 13:07:52;;;;;;;13.50;12.40;;;15.10;41.00;;;;;;10377597;28;20234;-73
2021/10/17 13:13:00;;;;;;;12.03;11.03;;;15.20;40.90;;;;;;10384719;28;20221;-74
2021/10/17 13:18:31;;;;;;;12.23;11.20;;;15.40;40.80;;;;;;10343462;28;20256;-75
2021/10/17 13:23:40;;;;;;;12.70;11.60;;;15.40;42.10;;;;;;10382598;28;20810;-74
2021/10/17 13:28:49;;;;;;;13.87;12.70;;;15.50;41.10;;;;;;10386184;28;20225;-74
2021/10/17 13:33:56;;;;;;;13.47;12.37;;;15.70;40.90;;;;;;10376003;28;20714;-74
2021/10/17 13:39:01;;;;;;;12.93;11.80;;;15.60;40.60;;;;;;10384304;28;20320;-74
2021/10/17 13:44:10;;;;;;;13.37;12.27;;;15.70;40.60;;;;;;10385285;28;20222;-74
2021/10/17 13:49:15;;;;;;;13.07;11.97;;;15.70;40.50;;;;;;10382876;28;20305;-74
2021/10/17 13:54:20;;;;;;;13.57;12.47;;;15.70;40.40;;;;;;10385341;28;20236;-74
2021/10/17 13:59:41;;;;;;;13.63;12.53;;;15.80;41.20;;;;;;10386350;28;20233;-74
2021/10/17 14:04:48;;;;;;;12.77;11.67;;;15.80;40.30;;;;;;10387164;28;20717;-73
2021/10/17 14:09:56;;;;;;;16.37;14.83;;;15.70;40.30;;;;;;10382409;28;20583;-74
2021/10/17 14:15:05;;;;;;;13.67;12.57;;;15.90;40.40;;;;;;10385731;28;20232;-74
2021/10/17 14:20:11;;;;;;;12.80;11.73;;;15.90;40.50;;;;;;10387362;28;20226;-74
2021/10/17 14:25:18;;;;;;;13.37;12.27;;;15.70;40.10;;;;;;10384539;28;20234;-74
2021/10/17 14:30:28;;;;;;;13.13;12.03;;;16.00;40.30;;;;;;10387568;28;20734;-74
2021/10/17 14:35:33;;;;;;;13.53;12.37;;;15.90;40.20;;;;;;10384924;28;20800;-74
2021/10/17 14:40:39;;;;;;;13.17;12.03;;;16.00;40.30;;;;;;10382667;28;20241;-74
2021/10/17 14:45:51;;;;;;;12.87;11.77;;;16.10;40.30;;;;;;10386503;28;20325;-74
2021/10/17 14:50:56;;;;;;;13.47;12.33;;;16.10;40.40;;;;;;10387888;28;20276;-74
2021/10/17 14:56:02;;;;;;;12.57;11.57;;;16.00;40.20;;;;;;10384709;28;20240;-74
2021/10/17 15:01:10;;;;;;;14.17;12.97;;;16.10;40.20;;;;;;10374950;28;20237;-75
2021/10/17 15:12:34;;;;;;;13.40;12.30;;;16.00;40.40;;;;;;10333279;28;20328;-75
2021/10/17 15:18:10;;;;;;;13.70;12.60;;;16.00;40.50;;;;;;10360755;28;20234;-73
2021/10/17 15:23:49;;;;;;;13.33;12.23;;;16.00;40.60;;;;;;10323426;28;20317;-74
2021/10/17 15:28:59;;;;;;;13.20;12.20;;;15.90;41.10;;;;;;10303706;28;20310;-80
2021/10/17 15:34:10;;;;;;;15.10;13.80;;;15.80;40.20;;;;;;10362662;22;20242;-77
2021/10/17 15:39:13;;;;;;;14.30;13.20;;;15.80;40.20;;;;;;10304355;28;20236;-77
2021/10/17 15:44:16;;;;;;;15.57;14.27;;;15.80;40.10;;;;;;10292432;28;20224;-77
2021/10/17 15:49:22;;;;;;;18.67;17.07;;;15.80;40.10;;;;;;10294437;28;20797;-77
2021/10/17 15:54:27;;;;;;;16.90;15.40;;;15.80;40.20;;;;;;10303293;28;20289;-77
2021/10/17 15:59:30;;;;;;;17.37;15.77;;;15.70;40.00;;;;;;10298244;28;20429;-77
2021/10/17 16:04:39;;;;;;;15.33;14.03;;;15.70;39.90;;;;;;10296502;28;20350;-75
2021/10/17 16:09:43;;;;;;;14.70;13.33;;;15.60;40.00;;;;;;10285880;28;20269;-76
2021/10/17 16:14:46;;;;;;;15.03;13.83;;;15.60;40.70;;;;;;10278354;28;20241;-74
2021/10/17 16:19:51;;;;;;;11.93;10.93;;;15.60;39.80;;;;;;10286476;28;20242;-74
2021/10/17 16:24:54;;;;;;;14.83;13.73;;;15.50;39.70;;;;;;10279919;28;20265;-75
2021/10/17 16:29:58;;;;;;;12.57;11.50;;;15.40;39.70;;;;;;10298044;28;20578;-74
2021/10/17 16:35:03;;;;;;;12.80;11.70;;;15.40;40.20;;;;;;10287112;28;20227;-74
2021/10/17 16:40:07;;;;;;;12.87;11.87;;;15.40;40.80;;;;;;10286198;28;20246;-75
2021/10/17 16:45:11;;;;;;;14.17;12.67;;;15.40;40.60;;;;;;10292552;28;20239;-75
2021/10/17 16:50:15;;;;;;;15.17;13.80;;;15.40;40.00;;;;;;10292493;28;20679;-75
2021/10/17 16:55:25;;;;;;;13.80;12.30;;;15.30;39.70;;;;;;10300454;28;20291;-75
2021/10/17 17:00:29;;;;;;;14.27;13.00;;;15.20;39.90;;;;;;10306220;28;20258;-75
2021/10/17 17:05:36;;;;;;;15.03;13.73;;;15.10;39.60;;;;;;10302613;28;20273;-75
2021/10/17 17:10:39;;;;;;;12.90;11.80;;;15.00;39.40;;;;;;10306142;28;20239;-75
2021/10/17 17:15:42;;;;;;;13.47;12.17;;;14.90;39.20;;;;;;10305615;28;20598;-75
2021/10/17 17:20:50;;;;;;;13.67;12.50;;;14.80;39.10;;;;;;10305627;28;20243;-76
2021/10/17 17:25:53;;;;;;;13.87;12.67;;;14.70;39.00;;;;;;10303865;28;20751;-76
2021/10/17 17:30:56;;;;;;;15.67;14.27;;;14.60;38.90;;;;;;10310165;28;20231;-76
2021/10/17 17:36:01;;;;;;;16.87;15.40;;;14.50;38.90;;;;;;10303622;28;20266;-76
2021/10/17 17:41:04;;;;;;;16.50;15.00;;;14.30;38.90;;;;;;10311305;28;20232;-75
2021/10/17 17:46:07;;;;;;;17.87;16.27;;;14.20;38.90;;;;;;10311800;28;20239;-75
2021/10/17 17:51:11;;;;;;;21.20;19.17;;;14.00;38.90;;;;;;10304796;28;20235;-75
2021/10/17 17:56:17;;;;;;;20.47;18.63;;;13.80;39.10;;;;;;10305080;28;20235;-76
2021/10/17 18:01:20;;;;;;;18.70;17.00;;;13.70;39.30;;;;;;10303298;28;20233;-75
2021/10/17 18:06:25;;;;;;;20.60;18.70;;;13.60;39.60;;;;;;10304184;28;20775;-76
2021/10/17 18:11:28;;;;;;;18.80;17.10;;;13.50;39.80;;;;;;10306323;28;20234;-76
2021/10/17 18:16:32;;;;;;;16.57;15.07;;;13.30;39.80;;;;;;10307813;28;20235;-75
2021/10/17 18:21:36;;;;;;;21.00;19.10;;;13.20;39.90;;;;;;10294856;28;20239;-76
2021/10/17 18:26:40;;;;;;;18.80;16.90;;;13.20;40.40;;;;;;10295457;28;20252;-76
2021/10/17 18:31:43;;;;;;;19.23;17.43;;;13.10;40.20;;;;;;10290235;28;20243;-75
2021/10/17 18:36:48;;;;;;;21.20;19.13;;;13.10;40.30;;;;;;10298624;28;20254;-75
2021/10/17 18:41:51;;;;;;;23.93;20.43;;;13.10;40.70;;;;;;10297213;28;20251;-76
2021/10/17 18:46:54;;;;;;;17.20;15.57;;;13.10;40.50;;;;;;10297029;28;20242;-75
2021/10/17 18:51:59;;;;;;;29.47;20.47;;;13.00;40.50;;;;;;10291541;28;21721;-75
2021/10/17 18:57:03;;;;;;;20.80;18.70;;;12.90;40.80;;;;;;10292961;28;20231;-76
2021/10/17 19:02:06;;;;;;;20.67;18.60;;;12.90;40.50;;;;;;10304948;28;20246;-76
2021/10/17 19:07:10;;;;;;;17.67;16.07;;;12.90;40.50;;;;;;10304493;28;20447;-76
2021/10/17 19:12:14;;;;;;;34.37;19.70;;;12.80;41.00;;;;;;10303483;28;20227;-76
2021/10/17 19:17:17;;;;;;;31.70;17.87;;;12.70;40.80;;;;;;10304167;28;20238;-76
2021/10/17 19:22:24;;;;;;;20.90;18.67;;;12.70;40.70;;;;;;10305825;28;20572;-76
2021/10/17 19:27:28;;;;;;;18.17;16.53;;;12.60;41.30;;;;;;10302852;28;20239;-77
2021/10/17 19:32:31;;;;;;;20.23;18.23;;;12.60;41.80;;;;;;10305231;28;20238;-77
2021/10/17 19:37:36;;;;;;;19.90;18.00;;;12.60;41.20;;;;;;10308185;28;20249;-77
2021/10/17 19:42:39;;;;;;;21.83;18.27;;;12.70;41.50;;;;;;10305008;28;20235;-77
2021/10/17 19:47:42;;;;;;;19.90;18.17;;;12.70;41.00;;;;;;10306146;28;20246;-77
2021/10/17 19:52:48;;;;;;;19.27;17.37;;;12.60;41.20;;;;;;10309457;28;20235;-77
2021/10/17 19:57:52;;;;;;;16.80;15.33;;;12.60;41.70;;;;;;10319595;28;20243;-77
2021/10/17 20:02:57;;;;;;;18.63;16.93;;;12.70;41.40;;;;;;10313506;28;20228;-77
2021/10/17 20:08:03;;;;;;;25.67;18.10;;;12.70;41.50;;;;;;10305752;28;20227;-77
2021/10/17 20:13:07;;;;;;;19.20;17.50;;;12.70;41.70;;;;;;10312490;28;20234;-77
2021/10/17 20:18:11;;;;;;;18.73;17.03;;;12.80;41.50;;;;;;10311088;28;20598;-77
2021/10/17 20:23:17;;;;;;;19.33;17.60;;;12.80;41.50;;;;;;10320151;28;20235;-77
2021/10/17 20:28:21;;;;;;;43.23;18.73;;;12.80;41.90;;;;;;10311143;28;20234;-77
2021/10/17 20:33:25;;;;;;;22.73;18.17;;;12.80;41.50;;;;;;10307141;28;20239;-77
2021/10/17 20:38:32;;;;;;;51.73;16.27;;;12.80;41.20;;;;;;10315502;28;20258;-77
2021/10/17 20:43:36;;;;;;;17.73;15.70;;;12.70;41.30;;;;;;10308893;28;20305;-77
2021/10/17 20:48:40;;;;;;;22.63;16.73;;;12.70;41.10;;;;;;10306022;28;20239;-77
2021/10/17 20:53:44;;;;;;;25.27;16.87;;;12.60;41.00;;;;;;10307232;28;20318;-77
2021/10/17 20:58:47;;;;;;;22.47;16.07;;;12.60;41.30;;;;;;10307364;28;20238;-77
2021/10/17 21:03:51;;;;;;;18.20;15.67;;;12.50;41.00;;;;;;10307290;28;20238;-76
2021/10/17 21:08:56;;;;;;;21.60;14.57;;;12.40;41.00;;;;;;10308193;28;20256;-77
2021/10/17 21:14:00;;;;;;;13.83;12.73;;;12.40;41.20;;;;;;10306200;28;20243;-77
2021/10/17 21:19:03;;;;;;;15.13;13.83;;;12.20;40.70;;;;;;10309398;28;20238;-77
2021/10/17 21:24:08;;;;;;;16.27;14.07;;;12.20;41.20;;;;;;10304305;28;20245;-76
2021/10/17 21:29:11;;;;;;;16.03;14.73;;;12.10;41.70;;;;;;10309809;28;20242;-77
2021/10/17 21:34:14;;;;;;;15.67;14.37;;;12.10;41.20;;;;;;10310661;28;20242;-76
2021/10/17 21:39:19;;;;;;;14.67;13.47;;;12.00;41.20;;;;;;10309531;28;20241;-77
2021/10/17 21:44:22;;;;;;;15.30;14.00;;;11.90;41.60;;;;;;10312300;28;20262;-77
2021/10/17 21:49:25;;;;;;;12.87;11.87;;;11.80;41.40;;;;;;10308564;28;20232;-76
2021/10/17 21:54:30;;;;;;;13.40;12.33;;;11.70;41.40;;;;;;10317220;28;20732;-76
2021/10/17 21:59:33;;;;;;;22.73;17.13;;;11.70;41.40;;;;;;10305794;28;20297;-76
2021/10/17 22:04:37;;;;;;;25.80;18.77;;;11.70;41.40;;;;;;10323275;28;20239;-76
2021/10/17 22:09:41;;;;;;;23.13;20.93;;;11.80;41.50;;;;;;10334213;28;20326;-76
2021/10/17 22:14:44;;;;;;;18.57;16.83;;;11.70;41.60;;;;;;10318330;28;20230;-77
2021/10/17 22:19:48;;;;;;;19.03;17.33;;;11.70;41.40;;;;;;10316566;28;20760;-76
2021/10/17 22:24:52;;;;;;;37.37;18.33;;;11.70;41.40;;;;;;10313793;28;20889;-76
2021/10/17 22:29:55;;;;;;;15.20;13.90;;;11.70;41.70;;;;;;10312716;28;20243;-76
2021/10/17 22:34:58;;;;;;;30.10;16.47;;;11.70;41.50;;;;;;10315415;28;20235;-77
2021/10/17 22:40:04;;;;;;;17.57;16.07;;;11.60;41.60;;;;;;10316833;28;20227;-76
2021/10/17 22:45:08;;;;;;;16.30;14.90;;;11.60;41.90;;;;;;10306033;28;20640;-76
2021/10/17 22:50:11;;;;;;;15.63;14.43;;;11.60;41.80;;;;;;10329213;28;20246;-76
2021/10/17 22:55:16;;;;;;;24.77;14.60;;;11.60;41.70;;;;;;10324228;28;20231;-76
2021/10/17 23:00:19;;;;;;;21.00;15.17;;;11.60;41.60;;;;;;10331587;28;20219;-76
2021/10/17 23:05:22;;;;;;;23.30;13.83;;;11.60;41.30;;;;;;10323114;28;20243;-76
2021/10/17 23:10:27;;;;;;;14.10;13.00;;;11.60;41.30;;;;;;10337770;28;20234;-76
2021/10/17 23:15:31;;;;;;;51.10;13.97;;;11.50;41.50;;;;;;10323223;28;20235;-76
2021/10/17 23:20:34;;;;;;;55.43;13.77;;;11.40;41.20;;;;;;10309106;28;20753;-76
2021/10/17 23:25:39;;;;;;;13.60;12.50;;;11.30;41.30;;;;;;10327447;28;20238;-76
2021/10/17 23:30:44;;;;;;;24.57;12.87;;;11.30;42.00;;;;;;10325423;28;20242;-76
2021/10/17 23:35:47;;;;;;;22.07;13.77;;;11.20;42.00;;;;;;10317745;28;20251;-77
2021/10/17 23:40:52;;;;;;;12.87;11.87;;;11.20;41.70;;;;;;10310063;28;20239;-76
2021/10/17 23:45:55;;;;;;;17.23;14.30;;;11.10;41.90;;;;;;10318419;28;20243;-76
2021/10/17 23:50:58;;;;;;;14.50;13.10;;;11.10;41.80;;;;;;10313773;28;20235;-76
2021/10/17 23:56:03;;;;;;;11.67;10.77;;;11.10;42.00;;;;;;10293758;28;20792;-76
